sensor_id;sensor_type;location;lat;lon;timestamp;pressure;altitude;pressure_sealevel;temperature;humidity
49877;BME280;35771;48.978;9.294;2022-12-07T09:25:18;99088.44;;;2.19;100.00
49877;BME280;35771;48.978;9.294;2022-12-07T09:27:44;99119.56;;;2.32;100.00
49877;BME280;35771;48.978;9.294;2022-12-07T09:30:12;99104.59;;;2.29;100.00
49877;BME280;35771;48.978;9.294;2022-12-07T09:32:38;99123.00;;;2.43;100.00
49877;BME280;35771;48.978;9.294;2022-12-07T09:35:05;99116.06;;;2.41;100.00
49877;BME280;35771;48.978;9.294;2022-12-07T09:37:32;99099.13;;;2.40;100.00
49877;BME280;35771;48.978;9.294;2022-12-07T09:40:01;99096.03;;;2.45;100.00
49877;BME280;35771;48.978;9.294;2022-12-07T09:42:32;99107.53;;;2.57;100.00
49877;BME280;35771;48.978;9.294;2022-12-07T09:45:01;99094.09;;;2.47;100.00
49877;BME280;35771;48.978;9.294;2022-12-07T09:47:29;99106.81;;;2.55;100.00
49877;BME280;35771;48.978;9.294;2022-12-07T09:50:00;99089.84;;;2.54;100.00
49877;BME280;35771;48.978;9.294;2022-12-07T09:52:30;99113.81;;;2.77;100.00
49877;BME280;35771;48.978;9.294;2022-12-07T09:54:57;99105.88;;;2.75;100.00
49877;BME280;35771;48.978;9.294;2022-12-07T09:57:29;99086.50;;;2.62;100.00
49877;BME280;35771;48.978;9.294;2022-12-07T10:00:03;99095.75;;;2.79;100.00
49877;BME280;35771;48.978;9.294;2022-12-07T10:02:35;99076.50;;;2.74;100.00
49877;BME280;35771;48.978;9.294;2022-12-07T10:05:05;99105.88;;;2.75;100.00
49877;BME280;35771;48.978;9.294;2022-12-07T10:07:32;99111.16;;;2.87;100.00
49877;BME280;35771;48.978;9.294;2022-12-07T10:09:58;99083.44;;;2.76;100.00
49877;BME280;35771;48.978;9.294;2022-12-07T10:12:25;99089.06;;;2.63;100.00
49877;BME280;35771;48.978;9.294;2022-12-07T10:15:00;99073.66;;;2.65;100.00
49877;BME280;35771;48.978;9.294;2022-12-07T10:17:32;99092.94;;;2.80;100.00
49877;BME280;35771;48.978;9.294;2022-12-07T10:20:13;99083.88;;;2.81;100.00
49877;BME280;35771;48.978;9.294;2022-12-07T10:22:54;99075.66;;;2.73;100.00
49877;BME280;35771;48.978;9.294;2022-12-07T10:25:22;99062.25;;;2.73;100.00
49877;BME280;35771;48.978;9.294;2022-12-07T10:27:57;99072.28;;;2.81;100.00
49877;BME280;35771;48.978;9.294;2022-12-07T10:30:25;99077.25;;;2.86;100.00
49877;BME280;35771;48.978;9.294;2022-12-07T10:32:52;99071.31;;;2.82;100.00
49877;BME280;35771;48.978;9.294;2022-12-07T10:35:22;99083.47;;;2.96;100.00
49877;BME280;35771;48.978;9.294;2022-12-07T10:37:49;99084.03;;;2.99;100.00
49877;BME280;35771;48.978;9.294;2022-12-07T10:40:28;99064.84;;;3.04;100.00
49877;BME280;35771;48.978;9.294;2022-12-07T10:43:03;99076.72;;;3.11;100.00
49877;BME280;35771;48.978;9.294;2022-12-07T10:45:32;99061.03;;;2.97;100.00
49877;BME280;35771;48.978;9.294;2022-12-07T10:48:03;99049.56;;;3.05;100.00
49877;BME280;35771;48.978;9.294;2022-12-07T10:50:45;99063.16;;;3.13;100.00
49877;BME280;35771;48.978;9.294;2022-12-07T10:53:30;99045.59;;;2.99;100.00
49877;BME280;35771;48.978;9.294;2022-12-07T10:56:14;99055.25;;;3.31;100.00
49877;BME280;35771;48.978;9.294;2022-12-07T10:58:57;99039.84;;;3.13;100.00
49877;BME280;35771;48.978;9.294;2022-12-07T11:01:30;99041.09;;;3.29;100.00
49877;BME280;35771;48.978;9.294;2022-12-07T11:04:17;99028.66;;;3.28;100.00
49877;BME280;35771;48.978;9.294;2022-12-07T11:06:51;99052.84;;;3.38;100.00
49877;BME280;35771;48.978;9.294;2022-12-07T11:09:38;99041.66;;;3.32;100.00
49877;BME280;35771;48.978;9.294;2022-12-07T11:12:15;99032.88;;;3.40;100.00
49877;BME280;35771;48.978;9.294;2022-12-07T11:14:52;99047.03;;;3.52;100.00
49877;BME280;35771;48.978;9.294;2022-12-07T11:17:27;99022.88;;;3.23;100.00
49877;BME280;35771;48.978;9.294;2022-12-07T11:20:03;99043.63;;;3.40;100.00
49877;BME280;35771;48.978;9.294;2022-12-07T11:22:37;99037.56;;;3.38;100.00
49877;BME280;35771;48.978;9.294;2022-12-07T11:25:22;99032.50;;;3.45;100.00
49877;BME280;35771;48.978;9.294;2022-12-07T11:28:07;99007.31;;;3.36;100.00
49877;BME280;35771;48.978;9.294;2022-12-07T11:30:40;99005.63;;;3.45;100.00
49877;BME280;35771;48.978;9.294;2022-12-07T11:33:17;99024.38;;;3.64;100.00
49877;BME280;35771;48.978;9.294;2022-12-07T11:35:56;99030.59;;;3.75;100.00
49877;BME280;35771;48.978;9.294;2022-12-07T11:38:30;99005.31;;;3.48;100.00
49877;BME280;35771;48.978;9.294;2022-12-07T11:41:02;99014.78;;;3.62;100.00
49877;BME280;35771;48.978;9.294;2022-12-07T11:43:49;99017.06;;;3.47;100.00
49877;BME280;35771;48.978;9.294;2022-12-07T11:46:17;99024.00;;;3.49;100.00
49877;BME280;35771;48.978;9.294;2022-12-07T11:48:47;99006.28;;;3.37;100.00
49877;BME280;35771;48.978;9.294;2022-12-07T11:51:18;99039.25;;;3.49;100.00
49877;BME280;35771;48.978;9.294;2022-12-07T11:53:49;99007.72;;;3.41;100.00
49877;BME280;35771;48.978;9.294;2022-12-07T11:56:21;98994.31;;;3.31;100.00
49877;BME280;35771;48.978;9.294;2022-12-07T11:58:52;99013.94;;;3.51;100.00
49877;BME280;35771;48.978;9.294;2022-12-07T12:01:35;98994.00;;;3.44;100.00
49877;BME280;35771;48.978;9.294;2022-12-07T12:04:19;99003.03;;;3.43;100.00
49877;BME280;35771;48.978;9.294;2022-12-07T12:06:50;98979.44;;;3.27;100.00
49877;BME280;35771;48.978;9.294;2022-12-07T12:09:19;99004.91;;;3.33;100.00
49877;BME280;35771;48.978;9.294;2022-12-07T12:12:05;98977.47;;;3.29;100.00
49877;BME280;35771;48.978;9.294;2022-12-07T12:14:46;98992.56;;;3.40;100.00
49877;BME280;35771;48.978;9.294;2022-12-07T12:17:37;98994.28;;;3.41;100.00
49877;BME280;35771;48.978;9.294;2022-12-07T12:20:19;98980.44;;;3.36;100.00
49877;BME280;35771;48.978;9.294;2022-12-07T12:22:51;98967.00;;;3.26;100.00
49877;BME280;35771;48.978;9.294;2022-12-07T12:25:22;98983.25;;;3.25;100.00
49877;BME280;35771;48.978;9.294;2022-12-07T12:27:51;98972.81;;;3.22;100.00
49877;BME280;35771;48.978;9.294;2022-12-07T12:30:29;98968.13;;;3.24;100.00
49877;BME280;35771;48.978;9.294;2022-12-07T12:33:03;98982.69;;;3.31;100.00
49877;BME280;35771;48.978;9.294;2022-12-07T12:35:34;98983.97;;;3.36;100.00
49877;BME280;35771;48.978;9.294;2022-12-07T12:40:59;98977.91;;;3.34;100.00
49877;BME280;35771;48.978;9.294;2022-12-07T12:43:43;98975.91;;;3.36;100.00
49877;BME280;35771;48.978;9.294;2022-12-07T12:46:45;98988.75;;;3.52;100.00
49877;BME280;35771;48.978;9.294;2022-12-07T12:49:42;98956.09;;;3.28;100.00
49877;BME280;35771;48.978;9.294;2022-12-07T12:55:15;98957.94;;;3.17;100.00
49877;BME280;35771;48.978;9.294;2022-12-07T12:57:45;98975.06;;;3.26;100.00
49877;BME280;35771;48.978;9.294;2022-12-07T13:00:16;98977.47;;;3.29;100.00
49877;BME280;35771;48.978;9.294;2022-12-07T13:02:47;98965.59;;;3.22;100.00
49877;BME280;35771;48.978;9.294;2022-12-07T13:05:19;98956.81;;;3.20;100.00
49877;BME280;35771;48.978;9.294;2022-12-07T13:07:58;98965.44;;;3.24;100.00
49877;BME280;35771;48.978;9.294;2022-12-07T13:10:38;98960.34;;;3.30;100.00
49877;BME280;35771;48.978;9.294;2022-12-07T13:13:34;98935.06;;;3.13;100.00
49877;BME280;35771;48.978;9.294;2022-12-07T13:19:00;98952.16;;;3.32;100.00
49877;BME280;35771;48.978;9.294;2022-12-07T13:21:43;98933.91;;;3.26;100.00
49877;BME280;35771;48.978;9.294;2022-12-07T13:24:12;98939.25;;;3.35;100.00
49877;BME280;35771;48.978;9.294;2022-12-07T13:26:42;98922.34;;;3.25;100.00
49877;BME280;35771;48.978;9.294;2022-12-07T13:29:10;98955.69;;;3.42;100.00
49877;BME280;35771;48.978;9.294;2022-12-07T13:31:38;98944.06;;;3.42;100.00
49877;BME280;35771;48.978;9.294;2022-12-07T13:34:30;98946.88;;;3.40;100.00
49877;BME280;35771;48.978;9.294;2022-12-07T13:36:57;98926.56;;;3.38;100.00
49877;BME280;35771;48.978;9.294;2022-12-07T13:39:25;98928.22;;;3.39;100.00
49877;BME280;35771;48.978;9.294;2022-12-07T13:41:55;98925.69;;;3.37;100.00
49877;BME280;35771;48.978;9.294;2022-12-07T13:44:23;98949.03;;;3.46;100.00
49877;BME280;35771;48.978;9.294;2022-12-07T13:46:57;98936.44;;;3.37;100.00
49877;BME280;35771;48.978;9.294;2022-12-07T13:49:27;98944.19;;;3.40;100.00
49877;BME280;35771;48.978;9.294;2022-12-07T13:52:08;98920.19;;;3.29;100.00
49877;BME280;35771;48.978;9.294;2022-12-07T13:54:43;98932.38;;;3.33;100.00
49877;BME280;35771;48.978;9.294;2022-12-07T13:57:11;98931.34;;;3.34;100.00
49877;BME280;35771;48.978;9.294;2022-12-07T13:59:38;98911.31;;;3.18;100.00
49877;BME280;35771;48.978;9.294;2022-12-07T14:02:18;98936.72;;;3.34;100.00
49877;BME280;35771;48.978;9.294;2022-12-07T14:04:45;98940.81;;;3.38;100.00
49877;BME280;35771;48.978;9.294;2022-12-07T14:07:23;98921.91;;;3.30;100.00
49877;BME280;35771;48.978;9.294;2022-12-07T14:09:56;98942.25;;;3.32;100.00
49877;BME280;35771;48.978;9.294;2022-12-07T14:12:25;98936.56;;;3.35;100.00
49877;BME280;35771;48.978;9.294;2022-12-07T14:14:52;98915.94;;;3.26;100.00
49877;BME280;35771;48.978;9.294;2022-12-07T14:17:21;98936.28;;;3.39;100.00
49877;BME280;35771;48.978;9.294;2022-12-07T14:19:50;98934.19;;;3.32;100.00
49877;BME280;35771;48.978;9.294;2022-12-07T14:22:31;98934.31;;;3.31;100.00
49877;BME280;35771;48.978;9.294;2022-12-07T14:25:13;98926.00;;;3.24;100.00
49877;BME280;35771;48.978;9.294;2022-12-07T14:27:49;98947.34;;;3.26;100.00
49877;BME280;35771;48.978;9.294;2022-12-07T14:30:18;98948.91;;;3.28;100.00
49877;BME280;35771;48.978;9.294;2022-12-07T14:32:47;98932.66;;;3.20;100.00
49877;BME280;35771;48.978;9.294;2022-12-07T14:35:17;98928.53;;;3.16;100.00
49877;BME280;35771;48.978;9.294;2022-12-07T14:37:47;98936.91;;;3.23;100.00
49877;BME280;35771;48.978;9.294;2022-12-07T14:40:16;98927.28;;;3.20;100.00
49877;BME280;35771;48.978;9.294;2022-12-07T14:42:44;98906.38;;;3.04;100.00
49877;BME280;35771;48.978;9.294;2022-12-07T14:45:18;98929.56;;;3.15;100.00
49877;BME280;35771;48.978;9.294;2022-12-07T14:47:45;98918.81;;;3.05;100.00
49877;BME280;35771;48.978;9.294;2022-12-07T14:50:13;98904.25;;;2.98;100.00
49877;BME280;35771;48.978;9.294;2022-12-07T14:52:42;98947.94;;;3.19;100.00
49877;BME280;35771;48.978;9.294;2022-12-07T14:55:13;98934.09;;;3.05;100.00
49877;BME280;35771;48.978;9.294;2022-12-07T14:57:40;98940.28;;;3.05;100.00
49877;BME280;35771;48.978;9.294;2022-12-07T15:00:09;98943.16;;;2.94;100.00
49877;BME280;35771;48.978;9.294;2022-12-07T15:02:40;98927.44;;;2.79;100.00
49877;BME280;35771;48.978;9.294;2022-12-07T15:05:07;98920.78;;;2.74;100.00
49877;BME280;35771;48.978;9.294;2022-12-07T15:07:34;98923.63;;;2.72;100.00
49877;BME280;35771;48.978;9.294;2022-12-07T15:10:01;98948.34;;;2.86;100.00
49877;BME280;35771;48.978;9.294;2022-12-07T15:12:28;98922.09;;;2.70;100.00
49877;BME280;35771;48.978;9.294;2022-12-07T15:14:54;98944.97;;;2.83;100.00
49877;BME280;35771;48.978;9.294;2022-12-07T15:17:21;98947.94;;;2.90;100.00
49877;BME280;35771;48.978;9.294;2022-12-07T15:19:49;98944.41;;;2.90;100.00
49877;BME280;35771;48.978;9.294;2022-12-07T15:22:15;98936.78;;;2.85;100.00
49877;BME280;35771;48.978;9.294;2022-12-07T15:24:42;98934.38;;;2.82;100.00
49877;BME280;35771;48.978;9.294;2022-12-07T15:27:08;98928.56;;;2.77;100.00
49877;BME280;35771;48.978;9.294;2022-12-07T15:29:35;98939.72;;;2.92;100.00
49877;BME280;35771;48.978;9.294;2022-12-07T15:32:02;98925.31;;;2.73;100.00
49877;BME280;35771;48.978;9.294;2022-12-07T15:34:28;98922.66;;;2.73;100.00
49877;BME280;35771;48.978;9.294;2022-12-07T15:36:58;98918.97;;;2.74;100.00
49877;BME280;35771;48.978;9.294;2022-12-07T15:39:24;98941.44;;;2.73;100.00
49877;BME280;35771;48.978;9.294;2022-12-07T15:41:51;98928.72;;;2.65;100.00
49877;BME280;35771;48.978;9.294;2022-12-07T15:44:17;98927.84;;;2.55;100.00
49877;BME280;35771;48.978;9.294;2022-12-07T15:47:01;98929.38;;;2.48;100.00
49877;BME280;35771;48.978;9.294;2022-12-07T15:49:30;98931.38;;;2.56;100.00
49877;BME280;35771;48.978;9.294;2022-12-07T15:51:58;98928.09;;;2.42;100.00
49877;BME280;35771;48.978;9.294;2022-12-07T15:54:26;98919.06;;;2.34;100.00
49877;BME280;35771;48.978;9.294;2022-12-07T15:56:53;98914.41;;;2.36;100.00
49877;BME280;35771;48.978;9.294;2022-12-07T15:59:20;98914.28;;;2.37;100.00
49877;BME280;35771;48.978;9.294;2022-12-07T16:01:46;98935.03;;;2.45;100.00
49877;BME280;35771;48.978;9.294;2022-12-07T16:04:13;98927.41;;;2.40;100.00
49877;BME280;35771;48.978;9.294;2022-12-07T16:06:40;98903.41;;;2.29;100.00
49877;BME280;35771;48.978;9.294;2022-12-07T16:09:08;98910.16;;;2.33;100.00
49877;BME280;35771;48.978;9.294;2022-12-07T16:11:35;98896.28;;;2.18;100.00
49877;BME280;35771;48.978;9.294;2022-12-07T16:14:01;98929.25;;;2.40;100.00
49877;BME280;35771;48.978;9.294;2022-12-07T16:16:28;98909.03;;;2.36;100.00
49877;BME280;35771;48.978;9.294;2022-12-07T16:18:55;98911.75;;;2.45;100.00
49877;BME280;35771;48.978;9.294;2022-12-07T16:21:22;98890.50;;;2.23;100.00
49877;BME280;35771;48.978;9.294;2022-12-07T16:23:48;98906.22;;;2.37;100.00
49877;BME280;35771;48.978;9.294;2022-12-07T16:26:18;98892.66;;;2.29;100.00
49877;BME280;35771;48.978;9.294;2022-12-07T16:28:45;98906.50;;;2.34;100.00
49877;BME280;35771;48.978;9.294;2022-12-07T16:31:16;98898.72;;;2.31;100.00
49877;BME280;35771;48.978;9.294;2022-12-07T16:33:44;98888.56;;;2.35;100.00
49877;BME280;35771;48.978;9.294;2022-12-07T16:36:11;98897.91;;;2.30;100.00
49877;BME280;35771;48.978;9.294;2022-12-07T16:38:39;98890.53;;;2.42;100.00
49877;BME280;35771;48.978;9.294;2022-12-07T16:41:06;98874.34;;;2.44;100.00
49877;BME280;35771;48.978;9.294;2022-12-07T16:43:35;98857.50;;;2.32;100.00
49877;BME280;35771;48.978;9.294;2022-12-07T16:46:02;98851.28;;;2.32;100.00
49877;BME280;35771;48.978;9.294;2022-12-07T16:48:29;98859.63;;;2.38;100.00
49877;BME280;35771;48.978;9.294;2022-12-07T16:50:56;98849.03;;;2.27;100.00
49877;BME280;35771;48.978;9.294;2022-12-07T16:53:24;98863.72;;;2.42;100.00
49877;BME280;35771;48.978;9.294;2022-12-07T16:56:24;98872.75;;;2.51;100.00
49877;BME280;35771;48.978;9.294;2022-12-07T16:58:53;98861.59;;;2.26;100.00
49877;BME280;35771;48.978;9.294;2022-12-07T17:01:20;98879.09;;;2.40;100.00
49877;BME280;35771;48.978;9.294;2022-12-07T17:03:48;98882.50;;;2.42;100.00
49877;BME280;35771;48.978;9.294;2022-12-07T17:06:16;98850.69;;;2.18;100.00
49877;BME280;35771;48.978;9.294;2022-12-07T17:08:43;98876.56;;;2.29;100.00
49877;BME280;35771;48.978;9.294;2022-12-07T17:11:11;98850.16;;;2.24;100.00
49877;BME280;35771;48.978;9.294;2022-12-07T17:13:39;98867.53;;;2.20;100.00
49877;BME280;35771;48.978;9.294;2022-12-07T17:16:25;98878.09;;;2.22;100.00
49877;BME280;35771;48.978;9.294;2022-12-07T17:18:51;98888.84;;;2.32;100.00
49877;BME280;35771;48.978;9.294;2022-12-07T17:21:18;98872.75;;;2.22;100.00
49877;BME280;35771;48.978;9.294;2022-12-07T17:23:45;98884.47;;;2.30;100.00
49877;BME280;35771;48.978;9.294;2022-12-07T17:26:14;98877.13;;;2.42;100.00
49877;BME280;35771;48.978;9.294;2022-12-07T17:28:41;98885.19;;;2.33;100.00
49877;BME280;35771;48.978;9.294;2022-12-07T17:31:09;98858.59;;;2.10;100.00
49877;BME280;35771;48.978;9.294;2022-12-07T17:33:37;98871.59;;;2.15;100.00
49877;BME280;35771;48.978;9.294;2022-12-07T17:36:09;98854.81;;;2.12;100.00
49877;BME280;35771;48.978;9.294;2022-12-07T17:38:36;98856.06;;;2.08;100.00
49877;BME280;35771;48.978;9.294;2022-12-07T17:41:08;98856.78;;;2.20;100.00
49877;BME280;35771;48.978;9.294;2022-12-07T17:43:38;98864.84;;;2.30;100.00
49877;BME280;35771;48.978;9.294;2022-12-07T17:46:06;98864.84;;;2.20;100.00
49877;BME280;35771;48.978;9.294;2022-12-07T17:48:34;98843.50;;;2.09;100.00
49877;BME280;35771;48.978;9.294;2022-12-07T17:51:02;98842.66;;;2.18;100.00
49877;BME280;35771;48.978;9.294;2022-12-07T17:53:48;98857.75;;;2.09;100.00
49877;BME280;35771;48.978;9.294;2022-12-07T17:56:15;98859.47;;;2.20;100.00
49877;BME280;35771;48.978;9.294;2022-12-07T17:58:42;98851.41;;;2.10;100.00
49877;BME280;35771;48.978;9.294;2022-12-07T18:01:37;98851.53;;;2.09;100.00
49877;BME280;35771;48.978;9.294;2022-12-07T18:04:04;98839.28;;;2.06;100.00
49877;BME280;35771;48.978;9.294;2022-12-07T18:06:33;98859.03;;;2.15;100.00
49877;BME280;35771;48.978;9.294;2022-12-07T18:09:00;98848.28;;;2.05;100.00
49877;BME280;35771;48.978;9.294;2022-12-07T18:11:27;98870.75;;;2.24;100.00
49877;BME280;35771;48.978;9.294;2022-12-07T18:13:54;98852.09;;;2.03;100.00
49877;BME280;35771;48.978;9.294;2022-12-07T18:16:25;98859.03;;;2.15;100.00
49877;BME280;35771;48.978;9.294;2022-12-07T18:18:54;98867.66;;;2.19;100.00
49877;BME280;35771;48.978;9.294;2022-12-07T18:21:23;98874.69;;;2.20;100.00
49877;BME280;35771;48.978;9.294;2022-12-07T18:23:55;98853.78;;;2.04;100.00
49877;BME280;35771;48.978;9.294;2022-12-07T18:26:22;98875.28;;;2.23;100.00
49877;BME280;35771;48.978;9.294;2022-12-07T18:28:49;98866.50;;;2.21;100.00
49877;BME280;35771;48.978;9.294;2022-12-07T18:31:16;98866.38;;;2.23;100.00
49877;BME280;35771;48.978;9.294;2022-12-07T18:33:44;98862.00;;;2.22;100.00
49877;BME280;35771;48.978;9.294;2022-12-07T18:36:11;98844.78;;;2.15;100.00
49877;BME280;35771;48.978;9.294;2022-12-07T18:38:39;98854.50;;;2.06;100.00
49877;BME280;35771;48.978;9.294;2022-12-07T18:41:07;98862.13;;;2.10;100.00
49877;BME280;35771;48.978;9.294;2022-12-07T18:43:34;98857.19;;;2.06;100.00
49877;BME280;35771;48.978;9.294;2022-12-07T18:46:01;98860.56;;;1.98;100.00
49877;BME280;35771;48.978;9.294;2022-12-07T18:48:28;98842.75;;;1.87;100.00
49877;BME280;35771;48.978;9.294;2022-12-07T18:50:59;98840.22;;;1.86;100.00
49877;BME280;35771;48.978;9.294;2022-12-07T18:53:26;98838.22;;;1.78;100.00
49877;BME280;35771;48.978;9.294;2022-12-07T18:55:59;98841.91;;;1.87;100.00
49877;BME280;35771;48.978;9.294;2022-12-07T18:58:27;98855.75;;;2.02;100.00
49877;BME280;35771;48.978;9.294;2022-12-07T19:00:54;98851.69;;;2.07;100.00
49877;BME280;35771;48.978;9.294;2022-12-07T19:03:21;98854.63;;;2.04;100.00
49877;BME280;35771;48.978;9.294;2022-12-07T19:05:48;98840.22;;;1.95;100.00
49877;BME280;35771;48.978;9.294;2022-12-07T19:08:14;98838.84;;;2.11;100.00
49877;BME280;35771;48.978;9.294;2022-12-07T19:10:41;98844.50;;;2.08;100.00
49877;BME280;35771;48.978;9.294;2022-12-07T19:13:08;98815.53;;;1.92;100.00
49877;BME280;35771;48.978;9.294;2022-12-07T19:15:38;98843.63;;;1.98;100.00
49877;BME280;35771;48.978;9.294;2022-12-07T19:18:05;98827.09;;;1.92;100.00
49877;BME280;35771;48.978;9.294;2022-12-07T19:20:31;98825.97;;;1.95;100.00
49877;BME280;35771;48.978;9.294;2022-12-07T19:22:58;98839.38;;;1.95;100.00
49877;BME280;35771;48.978;9.294;2022-12-07T19:25:25;98825.69;;;1.88;100.00
49877;BME280;35771;48.978;9.294;2022-12-07T19:27:51;98837.25;;;1.99;100.00
49877;BME280;35771;48.978;9.294;2022-12-07T19:30:18;98830.19;;;1.88;100.00
49877;BME280;35771;48.978;9.294;2022-12-07T19:32:46;98816.78;;;1.78;100.00
49877;BME280;35771;48.978;9.294;2022-12-07T19:35:12;98827.97;;;1.93;100.00
49877;BME280;35771;48.978;9.294;2022-12-07T19:37:39;98827.63;;;1.76;100.00
49877;BME280;35771;48.978;9.294;2022-12-07T19:40:07;98817.78;;;1.87;100.00
49877;BME280;35771;48.978;9.294;2022-12-07T19:42:34;98837.25;;;1.89;100.00
49877;BME280;35771;48.978;9.294;2022-12-07T19:45:00;98841.78;;;1.88;100.00
49877;BME280;35771;48.978;9.294;2022-12-07T19:47:27;98832.72;;;1.80;100.00
49877;BME280;35771;48.978;9.294;2022-12-07T19:49:55;98834.72;;;1.87;100.00
49877;BME280;35771;48.978;9.294;2022-12-07T19:52:21;98825.41;;;1.91;100.00
49877;BME280;35771;48.978;9.294;2022-12-07T19:54:48;98827.25;;;2.01;100.00
49877;BME280;35771;48.978;9.294;2022-12-07T19:57:15;98810.44;;;1.89;100.00
49877;BME280;35771;48.978;9.294;2022-12-07T19:59:42;98807.91;;;1.87;100.00
49877;BME280;35771;48.978;9.294;2022-12-07T20:02:11;98803.25;;;1.89;100.00
49877;BME280;35771;48.978;9.294;2022-12-07T20:04:38;98817.38;;;1.91;100.00
49877;BME280;35771;48.978;9.294;2022-12-07T20:07:06;98810.03;;;1.93;100.00
49877;BME280;35771;48.978;9.294;2022-12-07T20:09:33;98795.75;;;1.83;100.00
49877;BME280;35771;48.978;9.294;2022-12-07T20:12:00;98795.63;;;1.85;100.00
49877;BME280;35771;48.978;9.294;2022-12-07T20:14:44;98810.88;;;1.94;100.00
49877;BME280;35771;48.978;9.294;2022-12-07T20:17:11;98804.41;;;2.06;100.00
49877;BME280;35771;48.978;9.294;2022-12-07T20:19:37;98797.78;;;2.01;100.00
49877;BME280;35771;48.978;9.294;2022-12-07T20:22:06;98790.41;;;1.93;100.00
49877;BME280;35771;48.978;9.294;2022-12-07T20:24:32;98788.72;;;1.92;100.00
49877;BME280;35771;48.978;9.294;2022-12-07T20:27:00;98802.97;;;1.92;100.00
49877;BME280;35771;48.978;9.294;2022-12-07T20:29:27;98791.81;;;1.87;100.00
49877;BME280;35771;48.978;9.294;2022-12-07T20:31:56;98798.59;;;1.91;100.00
49877;BME280;35771;48.978;9.294;2022-12-07T20:34:23;98813.53;;;1.94;100.00
49877;BME280;35771;48.978;9.294;2022-12-07T20:36:50;98794.31;;;1.79;100.00
49877;BME280;35771;48.978;9.294;2022-12-07T20:39:19;98791.13;;;1.85;100.00
49877;BME280;35771;48.978;9.294;2022-12-07T20:41:47;98813.69;;;1.92;100.00
49877;BME280;35771;48.978;9.294;2022-12-07T20:44:32;98788.00;;;1.70;100.00
49877;BME280;35771;48.978;9.294;2022-12-07T20:46:59;98800.53;;;1.70;100.00
49877;BME280;35771;48.978;9.294;2022-12-07T20:49:25;98801.53;;;1.79;100.00
49877;BME280;35771;48.978;9.294;2022-12-07T20:51:52;98797.47;;;1.84;100.00
49877;BME280;35771;48.978;9.294;2022-12-07T20:54:20;98773.31;;;1.74;100.00
49877;BME280;35771;48.978;9.294;2022-12-07T20:56:47;98778.25;;;1.79;100.00
49877;BME280;35771;48.978;9.294;2022-12-07T20:59:14;98781.50;;;1.83;100.00
49877;BME280;35771;48.978;9.294;2022-12-07T21:01:41;98793.38;;;1.90;100.00
49877;BME280;35771;48.978;9.294;2022-12-07T21:04:09;98767.09;;;1.74;100.00
49877;BME280;35771;48.978;9.294;2022-12-07T21:06:37;98786.47;;;1.87;100.00
49877;BME280;35771;48.978;9.294;2022-12-07T21:09:03;98765.41;;;1.73;100.00
49877;BME280;35771;48.978;9.294;2022-12-07T21:11:31;98770.63;;;1.74;100.00
49877;BME280;35771;48.978;9.294;2022-12-07T21:13:58;98759.06;;;1.64;100.00
49877;BME280;35771;48.978;9.294;2022-12-07T21:16:26;98758.06;;;1.65;100.00
49877;BME280;35771;48.978;9.294;2022-12-07T21:18:54;98769.50;;;1.67;100.00
49877;BME280;35771;48.978;9.294;2022-12-07T21:21:21;98752.28;;;1.60;100.00
49877;BME280;35771;48.978;9.294;2022-12-07T21:23:49;98745.63;;;1.54;100.00
49877;BME280;35771;48.978;9.294;2022-12-07T21:26:19;98755.78;;;1.61;100.00
49877;BME280;35771;48.978;9.294;2022-12-07T21:28:48;98740.13;;;1.56;100.00
49877;BME280;35771;48.978;9.294;2022-12-07T21:31:15;98753.66;;;1.54;100.00
49877;BME280;35771;48.978;9.294;2022-12-07T21:33:43;98736.88;;;1.52;100.00
49877;BME280;35771;48.978;9.294;2022-12-07T21:36:10;98754.41;;;1.66;100.00
49877;BME280;35771;48.978;9.294;2022-12-07T21:38:38;98760.03;;;1.63;100.00
49877;BME280;35771;48.978;9.294;2022-12-07T21:41:10;98739.25;;;1.46;100.00
49877;BME280;35771;48.978;9.294;2022-12-07T21:43:38;98740.91;;;1.27;100.00
49877;BME280;35771;48.978;9.294;2022-12-07T21:46:06;98739.03;;;1.18;100.00
49877;BME280;35771;48.978;9.294;2022-12-07T21:48:33;98745.25;;;1.18;100.00
49877;BME280;35771;48.978;9.294;2022-12-07T21:51:04;98753.72;;;1.23;100.00
49877;BME280;35771;48.978;9.294;2022-12-07T21:53:31;98728.69;;;1.03;100.00
49877;BME280;35771;48.978;9.294;2022-12-07T21:55:57;98753.25;;;1.09;100.00
49877;BME280;35771;48.978;9.294;2022-12-07T21:58:24;98746.47;;;1.04;100.00
49877;BME280;35771;48.978;9.294;2022-12-07T22:00:54;98751.88;;;0.93;100.00
49877;BME280;35771;48.978;9.294;2022-12-07T22:03:22;98739.84;;;0.78;100.00
49877;BME280;35771;48.978;9.294;2022-12-07T22:05:48;98739.00;;;0.77;100.00
49877;BME280;35771;48.978;9.294;2022-12-07T22:08:16;98720.88;;;0.60;100.00
49877;BME280;35771;48.978;9.294;2022-12-07T22:10:43;98755.13;;;0.66;100.00
49877;BME280;35771;48.978;9.294;2022-12-07T22:13:10;98740.53;;;0.49;100.00
49877;BME280;35771;48.978;9.294;2022-12-07T22:15:39;98758.41;;;0.48;100.00
49877;BME280;35771;48.978;9.294;2022-12-07T22:18:05;98749.34;;;0.40;100.00
49877;BME280;35771;48.978;9.294;2022-12-07T22:20:33;98745.09;;;0.37;100.00
49877;BME280;35771;48.978;9.294;2022-12-07T22:23:00;98733.03;;;0.22;100.00
49877;BME280;35771;48.978;9.294;2022-12-07T22:25:26;98758.72;;;0.34;100.00
49877;BME280;35771;48.978;9.294;2022-12-07T22:27:53;98751.16;;;0.18;100.00
49877;BME280;35771;48.978;9.294;2022-12-07T22:30:19;98746.56;;;0.09;100.00
49877;BME280;35771;48.978;9.294;2022-12-07T22:32:46;98744.69;;;-0.01;100.00
49877;BME280;35771;48.978;9.294;2022-12-07T22:35:13;98747.59;;;-0.04;100.00
49877;BME280;35771;48.978;9.294;2022-12-07T22:37:40;98739.84;;;-0.07;100.00
49877;BME280;35771;48.978;9.294;2022-12-07T22:40:08;98744.13;;;-0.15;100.00
49877;BME280;35771;48.978;9.294;2022-12-07T22:42:35;98723.31;;;-0.33;100.00
49877;BME280;35771;48.978;9.294;2022-12-07T22:45:01;98751.06;;;-0.24;100.00
49877;BME280;35771;48.978;9.294;2022-12-07T22:47:28;98746.88;;;-0.38;100.00
49877;BME280;35771;48.978;9.294;2022-12-07T22:49:54;98724.81;;;-0.51;100.00